KFOK/FOK METAR and TAF weather

Enter ICAO airport designator
Station Type Date Time Source
KFOK METAR 2019/02/16 06:53 UTC NOAA

KFOK 160653Z AUTO 34008KT 10SM SCT075 BKN120 06/01 A2972 RMK AO2 SLP063 T00610011


Station Type Date Time Source
KFOK Decoded METAR 2019/02/16 06:53 UTC NOAA

THE GABRESKI AIRPORT, NY, United States (KFOK) 40-51N 072-37W 33M
Feb 16, 2019 - 01:53 AM EST / 2019.02.16 0653 UTC
Wind: from the NNW (340 degrees) at 9 MPH (8 KT):0
Visibility: 10 mile(s):0
Sky conditions: mostly cloudy
Temperature: 43.0 F (6.1 C)
Dew Point: 34.0 F (1.1 C)
Relative Humidity: 70%
Pressure (altimeter): 29.72 in. Hg (1006 hPa)
ob: KFOK 160653Z AUTO 34008KT 10SM SCT075 BKN120 06/01 A2972 RMK AO2 SLP063 T00610011
cycle: 7

Station Type Date Time Source
KFOK TAF UTC NOAA

Error!


Example: see airport list